createdAt,value
2023-05-15T00:01:02.535Z,13.36
2023-05-15T00:04:08.035Z,13.38
2023-05-15T00:07:13.175Z,13.41
2023-05-15T00:10:18.307Z,13.43
2023-05-15T00:13:24.947Z,13.34
2023-05-15T00:16:30.061Z,13.44
2023-05-15T00:19:35.349Z,13.36
2023-05-15T00:22:40.648Z,13.32
2023-05-15T00:25:45.725Z,13.35
2023-05-15T00:28:52.652Z,13.25
2023-05-15T00:31:57.967Z,13.28
2023-05-15T00:35:04.210Z,13.27
2023-05-15T00:38:09.341Z,13.13
2023-05-15T00:41:15.499Z,13.02
2023-05-15T00:44:22.349Z,13.08
2023-05-15T00:47:28.876Z,13.07
2023-05-15T00:50:35.011Z,13.08
2023-05-15T00:53:40.147Z,13.10
2023-05-15T00:56:46.439Z,13.15
2023-05-15T00:59:55.113Z,13.11
2023-05-15T01:03:00.867Z,13.14
2023-05-15T01:06:06.783Z,13.15
2023-05-15T01:09:16.689Z,13.07
2023-05-15T01:12:23.583Z,13.04
2023-05-15T01:15:30.324Z,13.09
2023-05-15T01:18:35.504Z,13.03
2023-05-15T01:22:12.384Z,12.93
2023-05-15T01:25:56.023Z,12.80
2023-05-15T01:29:06.471Z,12.76
2023-05-15T01:32:19.132Z,12.74
2023-05-15T01:35:30.482Z,12.51
2023-05-15T01:38:40.235Z,12.46
2023-05-15T01:41:50.181Z,12.42
2023-05-15T01:44:57.554Z,12.43
2023-05-15T01:48:03.245Z,12.42
2023-05-15T01:51:10.035Z,12.51
2023-05-15T01:54:15.872Z,12.63
2023-05-15T01:57:22.049Z,12.55
2023-05-15T02:00:28.615Z,12.58
2023-05-15T02:03:35.105Z,12.59
2023-05-15T02:06:40.489Z,12.58
2023-05-15T02:09:47.726Z,12.48
2023-05-15T02:12:54.115Z,12.63
2023-05-15T02:16:01.782Z,12.61
2023-05-15T02:19:07.003Z,12.56
2023-05-15T02:22:12.855Z,12.59
2023-05-15T02:25:19.316Z,12.57
2023-05-15T02:28:40.424Z,12.41
2023-05-15T02:31:52.977Z,12.38
2023-05-15T02:35:03.700Z,12.45
2023-05-15T02:38:13.419Z,12.41
2023-05-15T02:41:18.915Z,12.49
2023-05-15T02:44:24.250Z,12.51
2023-05-15T02:47:32.629Z,12.42
2023-05-15T02:50:38.505Z,12.38
2023-05-15T02:53:44.304Z,12.45
2023-05-15T02:56:49.417Z,12.30
2023-05-15T02:59:56.391Z,12.26
2023-05-15T03:03:02.949Z,12.31
2023-05-15T03:06:08.520Z,12.38
2023-05-15T03:09:13.762Z,12.46
2023-05-15T03:12:19.286Z,12.19
2023-05-15T03:15:24.708Z,12.14
2023-05-15T03:18:31.379Z,12.13
2023-05-15T03:21:36.590Z,12.33
2023-05-15T03:24:42.044Z,12.27
2023-05-15T03:27:47.216Z,12.34
2023-05-15T03:30:52.966Z,12.44
2023-05-15T03:33:59.457Z,12.32
2023-05-15T03:37:04.588Z,12.27
2023-05-15T03:40:10.972Z,12.17
2023-05-15T03:43:16.394Z,12.45
2023-05-15T03:46:22.578Z,12.32
2023-05-15T03:49:29.182Z,12.33
2023-05-15T03:52:34.310Z,12.46
2023-05-15T03:55:39.433Z,12.25
2023-05-15T03:58:45.025Z,12.29
2023-05-15T04:02:03.601Z,12.27
2023-05-15T04:05:12.916Z,12.46
2023-05-15T04:08:18.334Z,12.32
2023-05-15T04:11:23.921Z,12.37
2023-05-15T04:14:29.576Z,12.54
2023-05-15T04:17:34.663Z,12.71
2023-05-15T04:20:41.109Z,12.87
2023-05-15T04:23:46.201Z,12.91
2023-05-15T04:26:51.460Z,12.93
2023-05-15T04:29:56.633Z,12.92
2023-05-15T04:33:01.739Z,12.86
2023-05-15T04:36:09.512Z,12.96
2023-05-15T04:39:14.788Z,13.10
2023-05-15T04:42:19.970Z,13.17
2023-05-15T04:45:25.933Z,13.22
2023-05-15T04:48:31.140Z,13.21
2023-05-15T04:51:38.105Z,13.45
2023-05-15T04:54:43.415Z,13.33
2023-05-15T04:57:49.161Z,13.21
2023-05-15T05:00:54.232Z,13.20
2023-05-15T05:04:00.067Z,13.28
2023-05-15T05:07:06.808Z,13.19
2023-05-15T05:10:13.256Z,13.27
2023-05-15T05:13:18.448Z,13.26
2023-05-15T05:16:23.602Z,13.40
2023-05-15T05:19:29.253Z,13.45
2023-05-15T05:22:35.748Z,13.50
2023-05-15T05:25:40.828Z,13.55
2023-05-15T05:28:45.956Z,13.69
2023-05-15T05:31:51.394Z,13.83
2023-05-15T05:34:56.662Z,13.90
2023-05-15T05:38:08.245Z,13.96
2023-05-15T05:41:15.153Z,14.12
2023-05-15T05:44:20.261Z,14.17
2023-05-15T05:47:25.367Z,14.27
2023-05-15T05:50:30.610Z,14.32
2023-05-15T05:53:37.676Z,14.41
2023-05-15T05:56:45.094Z,14.53
2023-05-15T05:59:50.134Z,14.67
2023-05-15T06:02:58.884Z,14.80
2023-05-15T06:06:04.429Z,14.97
2023-05-15T06:09:12.834Z,15.11
2023-05-15T06:12:19.964Z,15.26
2023-05-15T06:15:26.499Z,15.31
2023-05-15T06:18:31.651Z,15.43
2023-05-15T06:21:36.623Z,15.48
2023-05-15T06:24:43.429Z,15.54
2023-05-15T06:27:48.688Z,15.71
2023-05-15T06:30:54.311Z,15.76
2023-05-15T06:33:59.378Z,15.80
2023-05-15T06:37:04.530Z,15.78
2023-05-15T06:40:12.070Z,15.89
2023-05-15T06:43:17.517Z,16.00
2023-05-15T06:46:22.911Z,16.01
2023-05-15T06:49:28.401Z,16.05
2023-05-15T06:52:33.374Z,16.11
2023-05-15T06:55:39.876Z,16.21
2023-05-15T06:58:44.979Z,16.33
2023-05-15T07:01:49.973Z,16.35
2023-05-15T07:04:55.046Z,16.33
2023-05-15T07:08:00.625Z,16.32
2023-05-15T07:11:07.248Z,16.45
2023-05-15T07:14:12.310Z,16.64
2023-05-15T07:17:17.680Z,16.77
2023-05-15T07:20:24.292Z,16.83
2023-05-15T07:23:30.281Z,16.89
2023-05-15T07:26:43.884Z,16.94
2023-05-15T07:29:55.572Z,16.93
2023-05-15T07:33:01.035Z,17.01
2023-05-15T07:36:06.803Z,16.98
2023-05-15T07:39:11.897Z,17.24
2023-05-15T07:42:18.329Z,17.53
2023-05-15T07:45:23.954Z,17.75
2023-05-15T07:48:29.354Z,17.98
2023-05-15T07:51:34.054Z,18.12
2023-05-15T07:54:39.626Z,18.24
2023-05-15T08:00:57.946Z,18.79
2023-05-15T08:04:02.993Z,18.92
2023-05-15T08:07:08.899Z,19.07
2023-05-15T08:10:14.208Z,19.14
2023-05-15T08:13:20.605Z,19.22
2023-05-15T08:16:25.764Z,19.23
2023-05-15T08:19:33.604Z,19.37
2023-05-15T08:22:39.110Z,19.37
2023-05-15T08:25:44.115Z,19.47
2023-05-15T08:28:50.468Z,19.52
2023-05-15T08:31:55.452Z,19.56
2023-05-15T08:35:00.532Z,19.55
2023-05-15T08:38:05.549Z,19.75
2023-05-15T08:41:38.642Z,19.75
2023-05-15T08:44:46.514Z,19.85
2023-05-15T08:47:51.729Z,19.92
2023-05-15T08:50:58.550Z,19.98
2023-05-15T08:54:03.751Z,19.93
2023-05-15T08:57:09.275Z,19.95
2023-05-15T09:00:18.265Z,19.97
2023-05-15T09:03:24.441Z,20.10
2023-05-15T09:06:30.275Z,20.22
2023-05-15T09:09:35.748Z,20.17
2023-05-15T09:12:45.202Z,20.29
2023-05-15T09:15:52.362Z,20.40
2023-05-15T09:18:57.536Z,20.43
2023-05-15T09:22:17.823Z,20.46
2023-05-15T09:25:39.653Z,20.60
2023-05-15T09:28:44.787Z,20.61
2023-05-15T09:31:52.094Z,20.80
2023-05-15T09:34:57.311Z,20.74
2023-05-15T09:38:03.171Z,20.85
2023-05-15T09:41:09.325Z,20.68
2023-05-15T09:44:21.938Z,20.71
2023-05-15T09:47:28.855Z,20.88
2023-05-15T09:50:36.474Z,20.88
2023-05-15T09:53:41.890Z,20.95
2023-05-15T09:56:47.306Z,21.09
2023-05-15T09:59:52.374Z,21.16
2023-05-15T10:03:03.434Z,20.96
2023-05-15T10:06:08.697Z,20.83
2023-05-15T10:09:15.273Z,20.82
2023-05-15T10:12:22.844Z,20.85
2023-05-15T10:15:28.370Z,20.98
2023-05-15T10:18:36.003Z,20.95
2023-05-15T10:21:42.683Z,20.94
2023-05-15T10:24:49.280Z,21.02
2023-05-15T10:27:54.857Z,20.99
2023-05-15T10:31:03.436Z,20.80
2023-05-15T10:34:11.991Z,20.78
2023-05-15T10:37:16.938Z,20.74
2023-05-15T10:40:22.707Z,20.71
2023-05-15T10:43:28.479Z,20.59
2023-05-15T10:46:36.695Z,20.70
2023-05-15T10:49:44.337Z,20.78
2023-05-15T10:52:53.211Z,20.66
2023-05-15T10:55:58.314Z,20.65
2023-05-15T10:59:08.228Z,20.39
2023-05-15T11:02:23.585Z,20.39
2023-05-15T11:05:31.242Z,20.35
2023-05-15T11:08:36.363Z,20.39
2023-05-15T11:11:58.016Z,20.46
2023-05-15T11:15:24.745Z,20.42
2023-05-15T11:18:30.009Z,20.39
2023-05-15T11:21:37.304Z,20.53
2023-05-15T11:24:51.369Z,20.53
2023-05-15T11:27:57.351Z,20.62
2023-05-15T11:31:07.246Z,20.56
2023-05-15T11:34:12.603Z,20.56
2023-05-15T11:37:20.733Z,20.64
2023-05-15T11:40:27.207Z,20.65
2023-05-15T11:43:33.604Z,20.63
2023-05-15T11:46:39.277Z,20.51
2023-05-15T11:49:44.746Z,20.70
2023-05-15T11:52:51.880Z,20.69
2023-05-15T11:55:56.958Z,20.82
2023-05-15T11:59:02.596Z,20.71
2023-05-15T12:02:08.168Z,20.69
2023-05-15T12:05:13.598Z,20.88
2023-05-15T12:08:20.492Z,20.74
2023-05-15T12:11:25.950Z,20.74
2023-05-15T12:14:31.663Z,20.67
2023-05-15T12:17:39.161Z,20.71
2023-05-15T12:20:46.637Z,20.82
2023-05-15T12:24:06.533Z,20.70
2023-05-15T12:27:13.636Z,20.51
2023-05-15T12:30:19.224Z,20.73
2023-05-15T12:33:24.858Z,20.89
2023-05-15T12:36:31.049Z,20.72
2023-05-15T12:39:37.430Z,20.76
2023-05-15T12:42:44.949Z,20.66
2023-05-15T12:45:54.435Z,20.75
2023-05-15T12:49:00.308Z,21.07
2023-05-15T12:52:10.496Z,20.77
2023-05-15T12:55:19.613Z,20.86
2023-05-15T12:58:26.238Z,21.00
2023-05-15T13:01:32.100Z,20.56
2023-05-15T13:04:37.495Z,20.79
2023-05-15T13:07:44.116Z,20.70
2023-05-15T13:10:58.378Z,20.73
2023-05-15T13:14:09.646Z,20.74
2023-05-15T13:17:16.799Z,20.48
2023-05-15T13:20:21.861Z,20.69
2023-05-15T13:23:26.858Z,20.62
2023-05-15T13:26:34.478Z,20.70
2023-05-15T13:29:39.447Z,20.79
2023-05-15T13:32:44.776Z,20.62
2023-05-15T13:35:50.179Z,21.11
2023-05-15T13:38:55.212Z,21.24
2023-05-15T13:42:01.948Z,20.69
2023-05-15T13:45:08.110Z,20.91
2023-05-15T13:48:14.331Z,20.83
2023-05-15T13:51:19.278Z,20.81
2023-05-15T13:54:23.957Z,20.86
2023-05-15T13:57:30.613Z,20.87
2023-05-15T14:00:35.692Z,20.70
2023-05-15T14:03:40.833Z,20.97
2023-05-15T14:06:46.143Z,20.96
2023-05-15T14:09:51.230Z,21.01
2023-05-15T14:12:59.399Z,20.60
2023-05-15T14:16:06.139Z,20.98
2023-05-15T14:19:11.615Z,20.95
2023-05-15T14:22:16.655Z,21.03
2023-05-15T14:25:21.691Z,20.76
2023-05-15T14:28:28.111Z,20.86
2023-05-15T14:31:33.062Z,20.70
2023-05-15T14:34:38.161Z,20.70
2023-05-15T14:37:43.495Z,20.95
2023-05-15T14:40:48.529Z,21.03
2023-05-15T14:43:54.707Z,20.80
2023-05-15T14:47:10.355Z,20.81
2023-05-15T14:50:15.488Z,20.87
2023-05-15T14:53:20.501Z,20.65
2023-05-15T14:56:25.954Z,20.32
2023-05-15T14:59:32.540Z,20.55
2023-05-15T15:02:37.753Z,20.64
2023-05-15T15:05:42.871Z,20.83
2023-05-15T15:08:48.038Z,20.65
2023-05-15T15:11:53.185Z,20.53
2023-05-15T15:14:59.777Z,20.39
2023-05-15T15:18:05.005Z,20.34
2023-05-15T15:21:10.361Z,20.28
2023-05-15T15:24:15.382Z,20.26
2023-05-15T15:27:20.324Z,20.33
2023-05-15T15:30:26.877Z,20.34
2023-05-15T15:33:32.036Z,20.19
2023-05-15T15:36:39.388Z,20.24
2023-05-15T15:39:44.560Z,20.29
2023-05-15T15:42:49.597Z,20.21
2023-05-15T15:45:57.116Z,20.25
2023-05-15T15:49:03.877Z,20.46
2023-05-15T15:52:10.217Z,20.27
2023-05-15T15:55:15.213Z,20.26
2023-05-15T15:58:20.806Z,20.22
2023-05-15T16:01:27.407Z,20.14
2023-05-15T16:04:32.485Z,20.10
2023-05-15T16:07:37.641Z,19.85
2023-05-15T16:10:42.727Z,19.98
2023-05-15T16:13:47.844Z,19.99
2023-05-15T16:16:54.461Z,20.03
2023-05-15T16:19:59.499Z,20.02
2023-05-15T16:23:04.467Z,19.97
2023-05-15T16:26:11.409Z,19.89
2023-05-15T16:29:16.809Z,19.99
2023-05-15T16:32:23.284Z,19.71
2023-05-15T16:35:28.516Z,19.75
2023-05-15T16:38:33.590Z,19.37
2023-05-15T16:41:38.550Z,19.74
2023-05-15T16:44:43.581Z,19.75
2023-05-15T16:47:49.906Z,19.66
2023-05-15T16:50:55.009Z,19.77
2023-05-15T16:54:00.136Z,19.71
2023-05-15T16:57:06.418Z,19.67
2023-05-15T17:00:15.425Z,19.68
2023-05-15T17:03:21.792Z,19.47
2023-05-15T17:06:26.941Z,19.42
2023-05-15T17:09:32.834Z,19.25
2023-05-15T17:12:38.026Z,19.18
2023-05-15T17:15:43.208Z,19.16
2023-05-15T17:18:49.567Z,19.10
2023-05-15T17:21:54.660Z,18.99
2023-05-15T17:24:59.735Z,19.04
2023-05-15T17:28:04.786Z,18.99
2023-05-15T17:31:13.172Z,18.91
2023-05-15T17:34:19.678Z,18.99
2023-05-15T17:37:24.711Z,18.83
2023-05-15T17:40:29.829Z,18.84
2023-05-15T17:43:34.928Z,18.76
2023-05-15T17:46:39.978Z,18.85
2023-05-15T17:49:46.361Z,18.57
2023-05-15T17:52:51.451Z,18.71
2023-05-15T17:55:56.572Z,18.67
2023-05-15T17:59:01.711Z,18.72
2023-05-15T18:02:07.466Z,18.34
2023-05-15T18:05:14.978Z,18.50
2023-05-15T18:08:20.078Z,18.59
2023-05-15T18:11:25.216Z,18.50
2023-05-15T18:14:30.251Z,18.47
2023-05-15T18:17:35.332Z,18.34
2023-05-15T18:20:41.862Z,18.27
2023-05-15T18:23:47.243Z,18.22
2023-05-15T18:26:52.232Z,18.03
2023-05-15T18:29:57.105Z,17.96
2023-05-15T18:33:02.411Z,18.04
2023-05-15T18:36:09.704Z,18.11
2023-05-15T18:39:16.713Z,18.12
2023-05-15T18:42:22.136Z,18.15
2023-05-15T18:45:27.674Z,18.11
2023-05-15T18:48:33.001Z,18.07
2023-05-15T18:51:39.336Z,18.02
2023-05-15T18:54:44.321Z,17.98
2023-05-15T18:57:49.384Z,18.02
2023-05-15T19:00:56.423Z,17.93
2023-05-15T19:04:01.557Z,17.71
2023-05-15T19:07:08.856Z,17.73
2023-05-15T19:10:14.221Z,17.67
2023-05-15T19:13:19.384Z,17.52
2023-05-15T19:16:28.561Z,17.54
2023-05-15T19:19:34.967Z,17.27
2023-05-15T19:22:41.760Z,17.03
2023-05-15T19:25:46.917Z,17.27
2023-05-15T19:28:52.995Z,17.13
2023-05-15T19:31:58.166Z,17.35
2023-05-15T19:35:03.676Z,17.26
2023-05-15T19:38:10.234Z,17.34
2023-05-15T19:41:15.698Z,17.14
2023-05-15T19:44:20.622Z,17.12
2023-05-15T19:47:26.846Z,17.02
2023-05-15T19:50:33.321Z,16.77
2023-05-15T19:53:39.890Z,16.84
2023-05-15T19:56:44.992Z,16.76
2023-05-15T19:59:49.905Z,16.70
2023-05-15T20:02:55.154Z,16.86
2023-05-15T20:06:00.917Z,16.86
2023-05-15T20:09:07.350Z,16.95
2023-05-15T20:12:14.633Z,16.90
2023-05-15T20:15:19.833Z,16.80
2023-05-15T20:18:25.287Z,16.69
2023-05-15T20:21:31.476Z,16.72
2023-05-15T20:24:38.734Z,16.68
2023-05-15T20:27:43.766Z,16.57
2023-05-15T20:30:48.822Z,16.43
2023-05-15T20:33:53.899Z,16.51
2023-05-15T20:36:59.404Z,16.38
2023-05-15T20:40:08.114Z,16.43
2023-05-15T20:43:15.076Z,16.30
2023-05-15T20:46:20.229Z,16.23
2023-05-15T20:49:25.321Z,16.24
2023-05-15T20:52:30.678Z,16.33
2023-05-15T20:55:37.487Z,16.44
2023-05-15T20:58:42.631Z,16.23
2023-05-15T21:01:47.672Z,16.14
2023-05-15T21:04:52.630Z,16.00
2023-05-15T21:07:57.850Z,15.95
2023-05-15T21:11:05.635Z,15.94
2023-05-15T21:14:10.785Z,15.90
2023-05-15T21:17:16.013Z,15.87
2023-05-15T21:20:21.322Z,15.71
2023-05-15T21:23:26.297Z,15.60
2023-05-15T21:26:33.270Z,15.70
2023-05-15T21:29:38.291Z,15.71
2023-05-15T21:32:43.375Z,15.79
2023-05-15T21:35:48.821Z,15.84
2023-05-15T21:38:54.250Z,15.82
2023-05-15T21:42:00.576Z,15.70
2023-05-15T21:45:07.053Z,15.59
2023-05-15T21:48:14.158Z,15.30
2023-05-15T21:51:19.196Z,15.22
2023-05-15T21:54:24.148Z,15.29
2023-05-15T21:57:30.704Z,15.38
2023-05-15T22:00:35.738Z,15.26
2023-05-15T22:03:41.264Z,15.29
2023-05-15T22:06:46.498Z,15.26
2023-05-15T22:09:53.241Z,15.26
2023-05-15T22:13:02.667Z,15.07
2023-05-15T22:16:09.597Z,15.07
2023-05-15T22:19:31.695Z,14.93
2023-05-15T22:22:38.423Z,14.91
2023-05-15T22:25:43.834Z,14.85
2023-05-15T22:28:52.753Z,14.85
2023-05-15T22:31:58.216Z,14.72
2023-05-15T22:35:03.816Z,14.63
2023-05-15T22:38:08.852Z,14.63
2023-05-15T22:41:14.644Z,14.60
2023-05-15T22:44:20.964Z,14.54
2023-05-15T22:47:26.397Z,14.62
2023-05-15T22:50:32.007Z,14.52
2023-05-15T22:53:37.506Z,14.48
2023-05-15T22:56:44.653Z,14.44
2023-05-15T22:59:53.396Z,14.41
2023-05-15T23:02:58.438Z,14.29
2023-05-15T23:06:10.130Z,14.34
2023-05-15T23:09:15.825Z,14.55
2023-05-15T23:12:21.505Z,14.43
2023-05-15T23:15:28.240Z,14.45
2023-05-15T23:18:33.340Z,14.53
2023-05-15T23:21:39.020Z,14.54
2023-05-15T23:24:44.022Z,14.64
2023-05-15T23:27:49.117Z,14.42
2023-05-15T23:30:56.000Z,14.46
2023-05-15T23:34:01.083Z,14.34
2023-05-15T23:37:06.390Z,14.14
2023-05-15T23:40:14.223Z,14.14
2023-05-15T23:43:19.463Z,14.12
2023-05-15T23:46:26.288Z,14.16
2023-05-15T23:49:32.935Z,14.02
2023-05-15T23:52:38.171Z,13.94
2023-05-15T23:55:43.217Z,13.89
2023-05-15T23:58:48.266Z,13.93
